Time;durP1;ratioP1;P1;durP2;ratioP2;P2;SDS_P1;SDS_P2;PMS_P1;PMS_P2;Temp;Humidity;BMP_temperature;BMP_pressure;BME280_temperature;BME280_humidity;BME280_pressure;Samples;Min_cycle;Max_cycle;Signal;HPM_P1;HPM_P2
2022/02/11 00:07:10;;;;;;;;;;;;;;;10.42;49.54;102255.03;5000513;28;19941;-87
2022/02/11 00:09:35;;;;;;;;;;;;;;;10.75;49.82;102258.69;4983183;28;19918;-83
2022/02/11 00:12:00;;;;;;;;;;;;;;;10.56;50.36;102251.97;4982725;28;19989;-85
2022/02/11 00:14:28;;;;;;;;;;;;;;;10.13;51.83;102251.16;4982996;28;19925;-86
2022/02/11 00:16:54;;;;;;;;;;;;;;;10.55;50.72;102253.81;4985870;28;19918;-83
2022/02/11 00:19:19;;;;;;;;;;;;;;;10.62;50.95;102257.22;4987905;28;20379;-85
2022/02/11 00:21:44;;;;;;;;;;;;;;;10.42;52.25;102250.50;4987826;28;19972;-84
2022/02/11 00:24:09;;;;;;;;;;;;;;;10.32;51.90;102253.44;4983342;28;19918;-85
2022/02/11 00:26:38;;;;;;;;;;;;;;;10.50;52.44;102255.72;4982905;28;19925;-84
2022/02/11 00:32:18;;;;;;;;;;;;;;;9.77;53.56;102253.75;4920803;29;19926;-84
2022/02/11 00:34:53;;;;;;;;;;;;;;;10.16;53.00;102256.50;4974575;28;20273;-84
2022/02/11 00:37:22;;;;;;;;;;;;;;;10.04;53.83;102254.06;4999236;28;19918;-81
2022/02/11 00:40:08;;;;;;;;;;;;;;;9.62;54.72;102257.69;4981743;28;19961;-84
2022/02/11 00:46:03;;;;;;;;;;;;;;;10.71;51.12;102250.69;5001108;28;19944;-84
2022/02/11 01:04:32;;;;;;;;;;;;;;;10.19;54.61;102229.38;5001592;28;19926;-82
2022/02/11 01:06:57;;;;;;;;;;;;;;;10.46;53.63;102235.06;4983604;28;19922;-85
2022/02/11 01:09:22;;;;;;;;;;;;;;;10.36;54.17;102228.13;4983460;28;19918;-84
2022/02/11 01:11:51;;;;;;;;;;;;;;;10.16;54.63;102225.84;5001523;28;19921;-84
2022/02/11 01:14:18;;;;;;;;;;;;;;;11.19;52.25;102225.94;4984351;28;19922;-88
2022/02/11 01:16:51;;;;;;;;;;;;;;;10.88;53.05;102245.72;4984361;28;19918;-87
2022/02/11 01:21:58;;;;;;;;;;;;;;;9.88;59.86;102245.41;5001162;28;19925;-84
2022/02/11 01:27:17;;;;;;;;;;;;;;;9.44;65.76;102244.56;5001237;28;19949;-85
2022/02/11 01:32:36;;;;;;;;;;;;;;;10.00;65.40;102230.75;5007743;28;19917;-86
2022/02/11 01:35:17;;;;;;;;;;;;;;;10.08;65.65;102250.38;5007922;28;19989;-84
2022/02/11 01:38:57;;;;;;;;;;;;;;;10.50;64.57;102242.19;5010990;28;19957;-81
2022/02/11 01:56:04;;;;;;;;;;;;;;;9.49;65.50;102273.25;5006104;28;19925;-84
2022/02/11 02:20:04;;;;;;;;;;;;;;;9.98;60.40;102281.22;5005851;28;19925;-84
2022/02/11 02:24:59;;;;;;;;;;;;;;;9.96;60.05;102285.78;5006309;28;19961;-86
2022/02/11 02:28:47;;;;;;;;;;;;;;;9.81;60.85;102277.06;5011373;28;19989;-81
2022/02/11 03:00:53;;;;;;;;;;;;;;;9.52;59.53;102291.22;4958102;28;19941;-84
2022/02/11 03:17:38;;;;;;;;;;;;;;;9.13;63.76;102310.81;5001656;28;19975;-84
2022/02/11 03:58:28;;;;;;;;;;;;;;;8.84;59.87;102371.59;5001006;28;20168;-83
2022/02/11 04:22:50;;;;;;;;;;;;;;;9.09;56.93;102427.00;5001529;28;19964;-84
2022/02/11 05:00:05;;;;;;;;;;;;;;;9.36;57.78;102506.69;4999752;28;19988;-83
2022/02/11 05:02:35;;;;;;;;;;;;;;;8.99;59.41;102515.34;4999655;28;20414;-85
2022/02/11 05:05:04;;;;;;;;;;;;;;;9.03;59.06;102498.19;4999111;28;19976;-84
2022/02/11 05:07:29;;;;;;;;;;;;;;;9.13;58.22;102517.84;4999402;28;20372;-85
2022/02/11 05:09:54;;;;;;;;;;;;;;;9.18;58.20;102515.97;4981862;28;19924;-83
2022/02/11 05:12:19;;;;;;;;;;;;;;;8.94;57.90;102509.13;5000723;28;19925;-83
2022/02/11 05:14:45;;;;;;;;;;;;;;;9.08;57.94;102528.72;4983035;28;19922;-85
2022/02/11 05:17:10;;;;;;;;;;;;;;;9.32;56.63;102523.88;5000328;28;19918;-87
2022/02/11 05:19:35;;;;;;;;;;;;;;;9.43;55.63;102545.31;5000232;28;19917;-82
2022/02/11 05:22:00;;;;;;;;;;;;;;;8.94;57.04;102557.72;4982569;28;19925;-83
2022/02/11 05:24:25;;;;;;;;;;;;;;;9.20;56.86;102555.53;5000833;28;19918;-84
2022/02/11 05:26:51;;;;;;;;;;;;;;;9.20;56.30;102566.34;4984458;28;19964;-83
2022/02/11 05:29:16;;;;;;;;;;;;;;;9.07;56.65;102570.13;4986968;28;19981;-83
2022/02/11 05:31:43;;;;;;;;;;;;;;;9.20;56.25;102566.34;5007288;28;20426;-82
2022/02/11 05:34:08;;;;;;;;;;;;;;;9.57;54.69;102582.00;4991098;28;19924;-80
2022/02/11 05:36:34;;;;;;;;;;;;;;;8.93;55.08;102586.50;5004586;28;19918;-83
2022/02/11 05:38:59;;;;;;;;;;;;;;;9.28;54.38;102586.94;4985055;28;19921;-86
2022/02/11 05:41:24;;;;;;;;;;;;;;;9.02;54.87;102597.16;5000574;28;19922;-83
2022/02/11 05:43:49;;;;;;;;;;;;;;;9.09;54.13;102613.28;4983378;28;19937;-85
2022/02/11 05:46:15;;;;;;;;;;;;;;;8.92;54.62;102616.22;4981349;28;19925;-83
2022/02/11 05:48:40;;;;;;;;;;;;;;;9.06;53.92;102616.94;4981232;28;19918;-83
2022/02/11 05:51:09;;;;;;;;;;;;;;;9.42;53.93;102633.56;4981422;28;19918;-85
2022/02/11 05:53:34;;;;;;;;;;;;;;;9.68;52.77;102637.69;4981736;28;20265;-83
2022/02/11 05:56:00;;;;;;;;;;;;;;;9.35;53.54;102626.47;4980516;28;19933;-84
2022/02/11 05:58:25;;;;;;;;;;;;;;;9.24;53.63;102634.72;4981302;28;20009;-85
2022/02/11 06:00:50;;;;;;;;;;;;;;;9.28;53.78;102630.16;4981594;28;19918;-84
2022/02/11 06:03:15;;;;;;;;;;;;;;;9.63;53.56;102640.47;4981786;28;19918;-84
2022/02/11 06:05:41;;;;;;;;;;;;;;;10.43;51.99;102651.81;4981371;28;19917;-84
2022/02/11 06:08:06;;;;;;;;;;;;;;;9.11;54.18;102649.28;4982075;28;19918;-84
2022/02/11 06:10:31;;;;;;;;;;;;;;;9.50;53.44;102650.56;5000371;28;20416;-84
2022/02/11 06:12:56;;;;;;;;;;;;;;;9.71;52.93;102646.66;4999743;28;19929;-84
2022/02/11 06:15:23;;;;;;;;;;;;;;;9.83;53.26;102650.06;4999657;28;19925;-82
2022/02/11 06:17:48;;;;;;;;;;;;;;;9.82;52.88;102651.88;5002245;28;19925;-85
2022/02/11 06:20:13;;;;;;;;;;;;;;;10.15;52.36;102656.78;5003761;28;19917;-85
2022/02/11 06:22:39;;;;;;;;;;;;;;;9.19;54.28;102658.16;4999580;28;19925;-85
2022/02/11 06:25:05;;;;;;;;;;;;;;;9.76;53.61;102662.78;4979663;28;20008;-83
2022/02/11 06:27:30;;;;;;;;;;;;;;;9.33;54.05;102667.00;4979806;28;19957;-84
2022/02/11 06:29:55;;;;;;;;;;;;;;;9.36;54.33;102672.34;4979319;28;19918;-85
2022/02/11 06:32:20;;;;;;;;;;;;;;;9.57;53.25;102690.09;4996606;28;19921;-84
2022/02/11 06:34:46;;;;;;;;;;;;;;;9.43;54.29;102705.56;4979430;28;20273;-84
2022/02/11 06:37:11;;;;;;;;;;;;;;;8.03;56.50;102715.94;4980799;28;19918;-84
2022/02/11 06:39:36;;;;;;;;;;;;;;;8.69;55.99;102711.81;4980035;28;20016;-87
2022/02/11 06:42:02;;;;;;;;;;;;;;;8.81;55.49;102719.78;4978571;28;19922;-81
2022/02/11 06:44:27;;;;;;;;;;;;;;;8.95;54.79;102729.53;4978665;28;19928;-83
2022/02/11 06:46:52;;;;;;;;;;;;;;;8.30;55.54;102731.00;4995810;28;19925;-81
2022/02/11 06:49:17;;;;;;;;;;;;;;;8.63;55.10;102738.84;4995616;28;19922;-81
2022/02/11 06:51:42;;;;;;;;;;;;;;;8.48;55.24;102742.56;4978395;28;19972;-84
2022/02/11 06:54:08;;;;;;;;;;;;;;;8.69;55.36;102755.88;4978789;28;19964;-84
2022/02/11 06:56:33;;;;;;;;;;;;;;;8.38;56.69;102765.09;4979370;28;19918;-85
2022/02/11 06:58:58;;;;;;;;;;;;;;;8.63;56.60;102774.81;4980510;28;19918;-87
2022/02/11 07:01:24;;;;;;;;;;;;;;;8.79;56.80;102772.00;4981575;28;19917;-84
2022/02/11 07:03:49;;;;;;;;;;;;;;;8.63;57.05;102780.19;4996944;28;19917;-84
2022/02/11 07:06:19;;;;;;;;;;;;;;;9.10;56.95;102791.47;4981060;28;20269;-85
2022/02/11 07:08:45;;;;;;;;;;;;;;;9.94;54.96;102803.09;4981568;28;19918;-86
2022/02/11 07:11:10;;;;;;;;;;;;;;;9.99;55.30;102805.72;4996571;28;19929;-86
2022/02/11 07:13:35;;;;;;;;;;;;;;;9.43;56.98;102816.34;4979477;28;19929;-84
2022/02/11 07:16:01;;;;;;;;;;;;;;;9.17;58.23;102816.63;4996487;28;20430;-86
2022/02/11 07:18:26;;;;;;;;;;;;;;;8.98;58.56;102814.13;4981056;28;19933;-82
2022/02/11 07:20:52;;;;;;;;;;;;;;;8.94;58.46;102824.94;5001584;28;20004;-87
2022/02/11 07:23:18;;;;;;;;;;;;;;;9.03;58.49;102835.66;4982591;28;19925;-84
2022/02/11 07:25:43;;;;;;;;;;;;;;;9.29;57.74;102832.69;4983171;28;19918;-85
2022/02/11 07:28:09;;;;;;;;;;;;;;;8.78;59.70;102838.56;4994808;28;19924;-88
2022/02/11 07:30:34;;;;;;;;;;;;;;;9.39;57.09;102841.59;4995408;28;19925;-87
2022/02/11 07:32:59;;;;;;;;;;;;;;;9.44;57.20;102847.84;4995251;28;19925;-85
2022/02/11 07:35:25;;;;;;;;;;;;;;;9.92;55.93;102852.72;4978280;28;19972;-87
2022/02/11 07:37:50;;;;;;;;;;;;;;;9.26;57.15;102854.34;4995701;28;19928;-85
2022/02/11 07:40:16;;;;;;;;;;;;;;;9.34;58.00;102867.75;4995904;28;20005;-86
2022/02/11 07:42:42;;;;;;;;;;;;;;;9.82;56.03;102870.84;4978723;28;19922;-86
2022/02/11 07:45:08;;;;;;;;;;;;;;;9.57;56.27;102876.53;4978898;28;19965;-85
2022/02/11 07:47:34;;;;;;;;;;;;;;;9.99;55.20;102877.84;4979077;28;19924;-85
2022/02/11 07:49:59;;;;;;;;;;;;;;;9.93;54.88;102881.53;5000347;28;19973;-86
2022/02/11 07:52:25;;;;;;;;;;;;;;;10.05;54.07;102878.66;4983670;28;19924;-85
2022/02/11 07:54:50;;;;;;;;;;;;;;;9.99;53.83;102891.38;4999330;28;19932;-85
2022/02/11 07:57:15;;;;;;;;;;;;;;;9.27;55.68;102895.72;4978702;28;19953;-86
2022/02/11 07:59:40;;;;;;;;;;;;;;;9.62;55.35;102906.22;4996416;28;19964;-87
2022/02/11 08:02:06;;;;;;;;;;;;;;;9.58;54.68;102917.97;4978525;28;19917;-84
2022/02/11 08:04:32;;;;;;;;;;;;;;;9.55;54.85;102926.09;4995807;28;20268;-85
2022/02/11 08:06:57;;;;;;;;;;;;;;;10.11;53.17;102930.00;4978082;28;19918;-86
2022/02/11 08:09:23;;;;;;;;;;;;;;;10.29;53.18;102936.97;4995191;28;20350;-86
2022/02/11 08:11:48;;;;;;;;;;;;;;;9.42;54.90;102936.13;4995462;28;19921;-85
2022/02/11 08:14:13;;;;;;;;;;;;;;;9.82;55.27;102954.63;4977462;28;19921;-86
2022/02/11 08:16:38;;;;;;;;;;;;;;;9.60;54.93;102951.25;4995457;28;20012;-85
2022/02/11 08:19:06;;;;;;;;;;;;;;;9.82;54.01;102962.75;4995346;28;19918;-86
2022/02/11 08:21:38;;;;;;;;;;;;;;;9.07;54.25;102963.41;4978392;28;19917;-84
2022/02/11 08:24:05;;;;;;;;;;;;;;;9.76;52.28;102976.34;4978045;28;19941;-85
2022/02/11 08:26:30;;;;;;;;;;;;;;;9.52;51.77;102990.97;4995161;28;19922;-84
2022/02/11 08:28:56;;;;;;;;;;;;;;;9.78;48.93;102982.59;4977851;28;19941;-85
2022/02/11 08:31:21;;;;;;;;;;;;;;;9.03;47.65;102992.25;4977787;28;19918;-83
2022/02/11 08:33:49;;;;;;;;;;;;;;;9.88;47.13;102984.31;4977962;28;19926;-81
2022/02/11 08:36:15;;;;;;;;;;;;;;;9.46;46.85;102997.31;4979876;28;19925;-84
2022/02/11 08:38:40;;;;;;;;;;;;;;;9.18;45.60;102997.53;4979431;28;19921;-84
2022/02/11 08:41:05;;;;;;;;;;;;;;;9.80;45.12;102997.03;4998831;28;19945;-82
2022/02/11 08:43:30;;;;;;;;;;;;;;;9.25;45.34;103011.00;4982486;28;19926;-83
2022/02/11 08:45:56;;;;;;;;;;;;;;;9.95;44.95;103012.19;4996022;28;19918;-83
2022/02/11 08:48:21;;;;;;;;;;;;;;;10.41;44.50;103032.47;4994957;28;20287;-83
2022/02/11 08:50:46;;;;;;;;;;;;;;;10.10;45.34;103036.38;4977235;28;19925;-83
2022/02/11 08:53:12;;;;;;;;;;;;;;;10.58;44.83;103041.28;4994882;28;19918;-81
2022/02/11 08:55:37;;;;;;;;;;;;;;;10.47;44.47;103037.81;4978759;28;20012;-82
2022/02/11 08:58:05;;;;;;;;;;;;;;;10.46;44.40;103046.81;4978097;28;20029;-84
2022/02/11 09:00:31;;;;;;;;;;;;;;;10.68;44.65;103057.41;4977750;28;19922;-84
2022/02/11 09:02:56;;;;;;;;;;;;;;;11.18;43.62;103050.41;4976722;28;19918;-82
2022/02/11 09:05:22;;;;;;;;;;;;;;;10.84;44.07;103056.31;4994329;28;19917;-84
2022/02/11 09:07:55;;;;;;;;;;;;;;;11.26;43.24;103058.41;4977549;28;20371;-84
2022/02/11 09:10:21;;;;;;;;;;;;;;;10.71;43.31;103065.50;4979592;28;19929;-87
2022/02/11 09:12:46;;;;;;;;;;;;;;;10.87;43.26;103074.31;4995036;28;19926;-85
2022/02/11 09:15:11;;;;;;;;;;;;;;;10.71;43.09;103073.63;4986003;28;19945;-82
2022/02/11 09:17:37;;;;;;;;;;;;;;;11.46;42.28;103080.69;4979599;28;19918;-82
2022/02/11 09:20:02;;;;;;;;;;;;;;;11.69;42.46;103079.44;4973861;28;19966;-82
2022/02/11 09:22:30;;;;;;;;;;;;;;;11.57;42.24;103085.94;4974320;28;19969;-84
2022/02/11 09:24:55;;;;;;;;;;;;;;;12.05;40.93;103090.63;4956759;28;19925;-84
2022/02/11 09:27:20;;;;;;;;;;;;;;;11.71;42.17;103096.56;4957094;28;20300;-83
2022/02/11 09:29:45;;;;;;;;;;;;;;;11.82;41.54;103090.97;4957137;28;19919;-84
2022/02/11 09:32:11;;;;;;;;;;;;;;;11.70;40.49;103092.97;4974378;28;20306;-85
2022/02/11 09:34:37;;;;;;;;;;;;;;;11.59;41.17;103111.19;4973193;28;19918;-83
2022/02/11 09:37:02;;;;;;;;;;;;;;;12.33;40.91;103101.84;4973379;28;20285;-84
2022/02/11 09:39:27;;;;;;;;;;;;;;;12.02;40.89;103121.41;4957298;28;19918;-84
2022/02/11 09:41:54;;;;;;;;;;;;;;;12.71;39.98;103126.44;4974213;28;20016;-85
2022/02/11 09:44:22;;;;;;;;;;;;;;;12.95;39.57;103135.94;4957172;28;19926;-83
2022/02/11 09:46:47;;;;;;;;;;;;;;;12.55;39.35;103142.16;4974317;28;20440;-84
2022/02/11 09:49:12;;;;;;;;;;;;;;;11.77;39.04;103138.97;4974237;28;19949;-84
2022/02/11 09:51:38;;;;;;;;;;;;;;;11.96;38.70;103142.31;4958824;28;19942;-83
2022/02/11 09:54:04;;;;;;;;;;;;;;;11.46;38.49;103142.16;4976921;28;19918;-84
2022/02/11 09:56:29;;;;;;;;;;;;;;;12.77;37.24;103146.25;4977440;28;19944;-82
2022/02/11 09:58:54;;;;;;;;;;;;;;;11.86;37.74;103146.94;4983348;28;19918;-85
2022/02/11 10:01:20;;;;;;;;;;;;;;;11.68;38.45;103151.75;4961178;28;19926;-86
2022/02/11 10:04:05;;;;;;;;;;;;;;;12.08;36.73;103152.03;4960685;28;19919;-87
2022/02/11 10:06:31;;;;;;;;;;;;;;;12.41;37.49;103158.72;4978530;28;20292;-86
2022/02/11 10:08:56;;;;;;;;;;;;;;;12.04;36.46;103159.34;4977154;28;20065;-86
2022/02/11 10:11:22;;;;;;;;;;;;;;;11.58;37.19;103165.44;4978661;28;20014;-85
2022/02/11 10:13:47;;;;;;;;;;;;;;;11.85;36.59;103175.91;4960042;28;20021;-86
2022/02/11 10:16:13;;;;;;;;;;;;;;;11.74;37.18;103182.41;4976287;28;20037;-85
2022/02/11 10:18:42;;;;;;;;;;;;;;;12.52;35.56;103182.97;4978455;28;19922;-86
2022/02/11 10:21:12;;;;;;;;;;;;;;;12.47;36.30;103190.28;4996735;28;19922;-87
2022/02/11 10:23:41;;;;;;;;;;;;;;;12.38;35.22;103185.94;4971501;28;19929;-85
2022/02/11 10:26:16;;;;;;;;;;;;;;;12.47;36.29;103187.56;4996224;28;19968;-84
2022/02/11 10:28:47;;;;;;;;;;;;;;;12.85;35.71;103192.28;4979261;28;19921;-85
2022/02/11 10:31:12;;;;;;;;;;;;;;;13.27;36.20;103200.50;4979296;28;20292;-85
2022/02/11 10:33:56;;;;;;;;;;;;;;;12.77;36.25;103208.72;4975248;28;20037;-85
2022/02/11 10:36:23;;;;;;;;;;;;;;;13.53;36.14;103214.50;4977405;28;19928;-87
2022/02/11 10:39:03;;;;;;;;;;;;;;;12.90;37.67;103214.81;4976280;28;19924;-85
2022/02/11 10:41:29;;;;;;;;;;;;;;;12.38;38.69;103213.97;4973165;28;19951;-86
2022/02/11 10:44:04;;;;;;;;;;;;;;;11.66;40.83;103225.91;4973100;28;20453;-85
2022/02/11 10:46:34;;;;;;;;;;;;;;;11.53;41.24;103228.78;4966801;28;19925;-86
2022/02/11 10:49:00;;;;;;;;;;;;;;;12.73;39.62;103234.16;4962131;28;20367;-86
2022/02/11 10:51:26;;;;;;;;;;;;;;;13.07;38.94;103241.69;4964598;28;19985;-85
2022/02/11 10:53:51;;;;;;;;;;;;;;;13.54;38.18;103251.63;4986203;28;19957;-87
2022/02/11 10:56:16;;;;;;;;;;;;;;;14.02;35.29;103248.72;4969966;28;19925;-86
2022/02/11 10:58:51;;;;;;;;;;;;;;;14.72;34.06;103253.38;4982974;28;19929;-85
2022/02/11 11:01:17;;;;;;;;;;;;;;;14.80;33.13;103253.19;4956262;28;20376;-85
2022/02/11 11:03:45;;;;;;;;;;;;;;;15.46;31.96;103253.13;4973245;28;19922;-87
2022/02/11 11:06:12;;;;;;;;;;;;;;;15.11;32.15;103257.78;4997887;28;19929;-83
2022/02/11 11:08:39;;;;;;;;;;;;;;;14.63;32.60;103259.97;4968155;28;19918;-86
2022/02/11 11:11:09;;;;;;;;;;;;;;;14.59;32.71;103269.09;4975152;28;19937;-84
2022/02/11 11:13:38;;;;;;;;;;;;;;;14.50;32.86;103272.94;4964368;28;19926;-88
2022/02/11 11:16:06;;;;;;;;;;;;;;;14.67;32.62;103264.41;4976674;28;19918;-88
2022/02/11 11:18:32;;;;;;;;;;;;;;;14.69;32.38;103267.97;4959394;28;19925;-85
2022/02/11 11:20:58;;;;;;;;;;;;;;;14.14;31.65;103272.03;4959597;28;20257;-82
2022/02/11 11:23:24;;;;;;;;;;;;;;;13.72;32.85;103269.38;4958813;28;19925;-85
2022/02/11 11:25:54;;;;;;;;;;;;;;;13.03;33.38;103267.13;4958822;28;19925;-84
2022/02/11 11:28:38;;;;;;;;;;;;;;;12.85;34.31;103265.63;4958710;28;19918;-85
2022/02/11 11:31:11;;;;;;;;;;;;;;;13.02;34.76;103270.75;4961536;28;19925;-84
2022/02/11 11:33:36;;;;;;;;;;;;;;;13.39;34.68;103266.44;4960241;28;19968;-85
2022/02/11 11:36:04;;;;;;;;;;;;;;;13.83;33.95;103270.91;4960356;28;19918;-80
2022/02/11 11:38:48;;;;;;;;;;;;;;;14.00;33.93;103273.25;4996125;28;20106;-83
2022/02/11 11:41:17;;;;;;;;;;;;;;;13.33;33.10;103275.59;4979814;28;19945;-86
2022/02/11 11:43:44;;;;;;;;;;;;;;;13.62;33.29;103285.00;4979619;28;19926;-86
2022/02/11 11:46:15;;;;;;;;;;;;;;;13.94;32.89;103288.84;4981313;28;19918;-87
2022/02/11 11:49:14;;;;;;;;;;;;;;;13.62;33.46;103287.72;4996541;28;19925;-87
2022/02/11 11:51:46;;;;;;;;;;;;;;;14.25;32.32;103286.31;4948573;28;19925;-89
2022/02/11 11:54:21;;;;;;;;;;;;;;;14.48;32.55;103291.19;4996720;28;19918;-85
2022/02/11 11:56:54;;;;;;;;;;;;;;;14.04;32.76;103294.94;4983247;28;19922;-84
2022/02/11 11:59:22;;;;;;;;;;;;;;;13.73;32.62;103296.53;4981904;28;19973;-86
2022/02/11 12:02:07;;;;;;;;;;;;;;;13.30;33.20;103305.56;4980190;28;19918;-85
2022/02/11 12:04:33;;;;;;;;;;;;;;;13.80;32.88;103300.03;4977822;28;19924;-85
2022/02/11 12:07:03;;;;;;;;;;;;;;;13.96;32.65;103300.56;4978465;28;19921;-87
2022/02/11 12:09:29;;;;;;;;;;;;;;;14.48;31.69;103296.63;4975948;28;19973;-86
2022/02/11 12:12:02;;;;;;;;;;;;;;;14.12;31.74;103298.41;4995058;28;19977;-87
2022/02/11 12:14:30;;;;;;;;;;;;;;;14.43;32.10;103297.66;4975849;28;19918;-85
2022/02/11 12:16:56;;;;;;;;;;;;;;;14.08;32.92;103297.56;4977230;28;19918;-85
2022/02/11 12:19:21;;;;;;;;;;;;;;;13.94;33.77;103299.72;4980395;28;20009;-86
2022/02/11 12:21:47;;;;;;;;;;;;;;;13.75;34.10;103301.94;4997514;28;19933;-90
2022/02/11 12:29:56;;;;;;;;;;;;;;;12.76;34.54;103307.44;4992240;28;20003;-88
2022/02/11 12:32:25;;;;;;;;;;;;;;;12.63;34.96;103314.00;4989443;28;20385;-89
2022/02/11 12:34:52;;;;;;;;;;;;;;;12.98;35.61;103312.47;4977774;28;19929;-90
2022/02/11 12:37:18;;;;;;;;;;;;;;;12.17;36.36;103317.44;4975669;28;19935;-90
2022/02/11 12:39:44;;;;;;;;;;;;;;;12.60;36.36;103322.19;4978616;28;19922;-89
2022/02/11 12:42:09;;;;;;;;;;;;;;;12.98;37.13;103320.63;4978676;28;20021;-90
2022/02/11 12:44:34;;;;;;;;;;;;;;;13.39;36.08;103319.00;4978598;28;20327;-90
2022/02/11 12:47:01;;;;;;;;;;;;;;;13.94;35.07;103325.09;4979354;28;19929;-90
2022/02/11 12:49:26;;;;;;;;;;;;;;;14.31;35.36;103309.75;4980901;28;19918;-90
2022/02/11 12:51:52;;;;;;;;;;;;;;;14.74;34.41;103316.91;4978494;28;19918;-89
2022/02/11 12:54:19;;;;;;;;;;;;;;;15.07;34.00;103314.22;4981256;28;19940;-90
2022/02/11 12:56:44;;;;;;;;;;;;;;;13.96;36.60;103322.34;4981072;28;19925;-89
2022/02/11 12:59:10;;;;;;;;;;;;;;;14.30;36.63;103321.59;4983164;28;19918;-86
2022/02/11 13:01:35;;;;;;;;;;;;;;;13.22;38.66;103322.00;4983439;28;19918;-87
2022/02/11 13:04:01;;;;;;;;;;;;;;;13.35;39.57;103335.41;4987630;28;20107;-87
2022/02/11 13:06:26;;;;;;;;;;;;;;;12.53;41.32;103331.34;4999944;28;19965;-88
2022/02/11 13:09:06;;;;;;;;;;;;;;;12.16;41.72;103337.34;4978411;28;19918;-88
2022/02/11 13:11:32;;;;;;;;;;;;;;;11.75;43.22;103331.53;4978163;28;19926;-89
2022/02/11 13:14:00;;;;;;;;;;;;;;;11.18;43.72;103345.72;4980312;28;20441;-89
2022/02/11 13:16:26;;;;;;;;;;;;;;;11.25;43.72;103344.75;4979023;28;19976;-87
2022/02/11 13:18:51;;;;;;;;;;;;;;;10.86;44.16;103343.31;4978171;28;19922;-90
2022/02/11 13:21:17;;;;;;;;;;;;;;;11.49;43.08;103356.25;4977616;28;19972;-88
2022/02/11 13:23:43;;;;;;;;;;;;;;;11.52;43.07;103343.56;4977728;28;20030;-89
2022/02/11 13:26:14;;;;;;;;;;;;;;;11.19;43.90;103350.22;4996105;28;19918;-88
2022/02/11 13:28:44;;;;;;;;;;;;;;;11.10;44.16;103358.47;4981464;28;20303;-88
2022/02/11 13:31:09;;;;;;;;;;;;;;;11.74;43.62;103350.53;4998930;28;19918;-88
2022/02/11 13:33:36;;;;;;;;;;;;;;;11.97;42.80;103352.97;4980984;28;19929;-89
2022/02/11 13:36:03;;;;;;;;;;;;;;;11.89;43.22;103358.47;4980902;28;19921;-88
2022/02/11 13:38:32;;;;;;;;;;;;;;;12.12;42.63;103357.31;4998645;28;19953;-88
2022/02/11 13:41:03;;;;;;;;;;;;;;;12.22;41.87;103353.53;4981490;28;19930;-90
2022/02/11 13:43:45;;;;;;;;;;;;;;;12.82;40.74;103359.84;4997967;28;19929;-90
2022/02/11 13:46:10;;;;;;;;;;;;;;;12.58;40.91;103346.66;4981449;28;19989;-89
2022/02/11 13:48:49;;;;;;;;;;;;;;;13.23;39.76;103352.81;4982083;28;20390;-90
2022/02/11 13:51:17;;;;;;;;;;;;;;;12.77;39.77;103355.41;4981794;28;20259;-91
2022/02/11 13:53:52;;;;;;;;;;;;;;;12.47;38.82;103354.09;4981507;28;19965;-89
2022/02/11 13:56:22;;;;;;;;;;;;;;;12.88;38.53;103365.22;4981120;28;19949;-89
2022/02/11 13:59:06;;;;;;;;;;;;;;;13.09;39.29;103364.81;4981057;28;20013;-89
2022/02/11 14:01:32;;;;;;;;;;;;;;;13.47;38.28;103360.53;4981155;28;19983;-89
2022/02/11 14:04:21;;;;;;;;;;;;;;;13.02;38.83;103368.56;4980992;28;19980;-87
2022/02/11 14:06:54;;;;;;;;;;;;;;;12.39;39.39;103367.78;4975451;28;19918;-89
2022/02/11 14:09:25;;;;;;;;;;;;;;;11.86;39.82;103370.25;4980828;28;20033;-89
2022/02/11 14:11:50;;;;;;;;;;;;;;;11.94;39.03;103369.28;4980684;28;19953;-90
2022/02/11 14:14:21;;;;;;;;;;;;;;;12.29;40.47;103374.25;4980952;28;19922;-87
2022/02/11 14:16:46;;;;;;;;;;;;;;;12.44;39.70;103374.94;4981392;28;19924;-90
2022/02/11 14:19:15;;;;;;;;;;;;;;;12.39;39.68;103378.66;4998694;28;20016;-89
2022/02/11 14:21:40;;;;;;;;;;;;;;;12.67;40.25;103382.75;4982458;28;19922;-90
2022/02/11 14:24:07;;;;;;;;;;;;;;;13.18;39.36;103384.59;4999352;28;20323;-88
2022/02/11 14:26:33;;;;;;;;;;;;;;;12.43;39.35;103384.03;4984773;28;19918;-89
2022/02/11 14:28:58;;;;;;;;;;;;;;;12.26;41.55;103393.31;4986325;28;19948;-92
2022/02/11 14:31:23;;;;;;;;;;;;;;;11.95;43.27;103393.69;4984602;28;19918;-87
2022/02/11 14:33:49;;;;;;;;;;;;;;;12.39;42.51;103396.72;4993424;28;19917;-86
2022/02/11 14:36:14;;;;;;;;;;;;;;;12.24;42.20;103397.84;5002686;28;19969;-85
2022/02/11 14:38:42;;;;;;;;;;;;;;;12.62;41.72;103390.97;5009886;28;19928;-86
2022/02/11 14:43:52;;;;;;;;;;;;;;;12.64;39.32;103393.66;4998667;28;19929;-87
2022/02/11 14:46:17;;;;;;;;;;;;;;;12.74;39.20;103395.28;4997286;28;19922;-87
2022/02/11 14:48:42;;;;;;;;;;;;;;;13.42;38.70;103389.66;4997926;28;19976;-87
2022/02/11 14:51:07;;;;;;;;;;;;;;;13.69;38.32;103400.88;5000575;28;20009;-84
2022/02/11 14:53:34;;;;;;;;;;;;;;;13.60;38.44;103392.91;5005503;28;19918;-87
2022/02/11 14:55:59;;;;;;;;;;;;;;;13.21;39.03;103403.56;5003811;28;19918;-85
2022/02/11 14:58:25;;;;;;;;;;;;;;;13.16;38.74;103400.06;4991323;28;19944;-86
2022/02/11 15:00:50;;;;;;;;;;;;;;;12.91;39.04;103403.19;4982839;28;19918;-86
2022/02/11 15:03:16;;;;;;;;;;;;;;;12.81;39.10;103409.69;4981496;28;20360;-87
2022/02/11 15:05:41;;;;;;;;;;;;;;;13.34;38.31;103401.59;4983069;28;19941;-87
2022/02/11 15:08:06;;;;;;;;;;;;;;;13.22;38.31;103405.38;4981978;28;19918;-86
2022/02/11 15:10:31;;;;;;;;;;;;;;;12.99;38.48;103403.06;4979250;28;20012;-86
2022/02/11 15:12:57;;;;;;;;;;;;;;;12.75;38.07;103403.41;4978812;28;20394;-86
2022/02/11 15:15:22;;;;;;;;;;;;;;;12.73;37.60;103407.09;4979047;28;19918;-86
2022/02/11 15:17:47;;;;;;;;;;;;;;;13.10;37.90;103410.13;4996514;28;19918;-88
2022/02/11 15:20:13;;;;;;;;;;;;;;;12.82;36.79;103409.66;4979646;28;20395;-87
2022/02/11 15:22:38;;;;;;;;;;;;;;;12.93;37.40;103402.22;4979399;28;19965;-87
2022/02/11 15:25:03;;;;;;;;;;;;;;;12.59;37.43;103413.63;4996493;28;19918;-86
2022/02/11 15:27:29;;;;;;;;;;;;;;;12.76;37.17;103416.09;4979272;28;19918;-88
2022/02/11 15:29:54;;;;;;;;;;;;;;;12.65;37.89;103409.03;4979615;28;19917;-88
2022/02/11 15:32:19;;;;;;;;;;;;;;;12.31;38.15;103413.13;4979379;28;20016;-89
2022/02/11 15:34:44;;;;;;;;;;;;;;;12.31;37.69;103413.13;4996616;28;19924;-88
2022/02/11 15:37:10;;;;;;;;;;;;;;;12.49;37.32;103411.09;4998103;28;19961;-91
2022/02/11 15:39:35;;;;;;;;;;;;;;;12.71;36.99;103418.00;4996440;28;19961;-88
2022/02/11 15:42:00;;;;;;;;;;;;;;;12.24;37.99;103419.53;4995801;28;19929;-90
2022/02/11 15:44:26;;;;;;;;;;;;;;;13.09;37.01;103418.31;4978878;28;20292;-88
2022/02/11 15:46:51;;;;;;;;;;;;;;;13.05;37.15;103420.16;4996692;28;19973;-90
2022/02/11 15:49:16;;;;;;;;;;;;;;;12.82;37.27;103422.34;4978953;28;20386;-89
2022/02/11 15:51:41;;;;;;;;;;;;;;;12.68;37.57;103417.13;4979610;28;19924;-90
2022/02/11 15:54:07;;;;;;;;;;;;;;;12.99;37.24;103412.09;4979789;28;20016;-88
2022/02/11 15:56:32;;;;;;;;;;;;;;;13.39;37.04;103416.91;4979278;28;20277;-89
2022/02/11 15:58:57;;;;;;;;;;;;;;;13.70;36.83;103415.41;4996132;28;19918;-91
2022/02/11 16:01:22;;;;;;;;;;;;;;;13.38;37.02;103425.97;4979939;28;20064;-87
2022/02/11 16:03:48;;;;;;;;;;;;;;;13.63;36.42;103420.06;5000165;28;20282;-87
2022/02/11 16:06:13;;;;;;;;;;;;;;;12.62;37.72;103420.84;4999399;28;19918;-88
2022/02/11 16:08:38;;;;;;;;;;;;;;;12.86;37.51;103421.38;4980664;28;19964;-88
2022/02/11 16:11:04;;;;;;;;;;;;;;;12.93;37.30;103423.06;4997860;28;19926;-89
2022/02/11 16:13:29;;;;;;;;;;;;;;;13.22;36.93;103427.13;4998250;28;20008;-88
2022/02/11 16:15:54;;;;;;;;;;;;;;;13.15;37.05;103429.06;4999720;28;19971;-88
2022/02/11 16:18:23;;;;;;;;;;;;;;;13.18;37.31;103428.09;4982311;28;19991;-90
2022/02/11 16:20:49;;;;;;;;;;;;;;;12.98;37.53;103425.72;5003086;28;19925;-85
2022/02/11 16:23:21;;;;;;;;;;;;;;;13.04;37.99;103434.66;4999560;28;19925;-87
2022/02/11 16:25:47;;;;;;;;;;;;;;;12.90;38.13;103429.44;5003313;28;19937;-90